Time;durP1;ratioP1;P1;durP2;ratioP2;P2;SDS_P1;SDS_P2;PMS_P1;PMS_P2;Temp;Humidity;BMP_temperature;BMP_pressure;BME280_temperature;BME280_humidity;BME280_pressure;Samples;Min_cycle;Max_cycle;Signal;HPM_P1;HPM_P2
2023/01/09 00:00:13;;;;;;;0.40;0.38;;;8.10;89.70;;;;;;5136736;28;20062;-78
2023/01/09 00:02:39;;;;;;;0.20;0.20;;;8.00;89.80;;;;;;5136473;28;20039;-77
2023/01/09 00:05:06;;;;;;;0.38;0.25;;;8.00;89.90;;;;;;5136355;28;20054;-77
2023/01/09 00:07:32;;;;;;;0.28;0.28;;;8.00;90.00;;;;;;5101052;28;20439;-77
2023/01/09 00:09:58;;;;;;;0.50;0.30;;;7.90;90.00;;;;;;5136243;28;20070;-78
2023/01/09 00:12:24;;;;;;;0.30;0.30;;;7.80;90.30;;;;;;5118644;28;20039;-77
2023/01/09 00:14:49;;;;;;;0.35;0.30;;;7.90;90.10;;;;;;5136514;28;20039;-78
2023/01/09 00:17:15;;;;;;;0.30;0.20;;;7.90;90.10;;;;;;5136963;28;20035;-77
2023/01/09 00:19:40;;;;;;;0.45;0.30;;;7.80;90.10;;;;;;5137119;28;20039;-77
2023/01/09 00:22:08;;;;;;;0.40;0.28;;;7.80;90.10;;;;;;5118053;28;20039;-77
2023/01/09 00:24:35;;;;;;;0.20;0.20;;;7.80;90.20;;;;;;5136611;28;20589;-77
2023/01/09 00:27:02;;;;;;;0.17;0.17;;;7.70;90.20;;;;;;5136118;28;20482;-77
2023/01/09 00:29:27;;;;;;;0.10;0.10;;;7.70;90.20;;;;;;5118124;28;20043;-77
2023/01/09 00:31:53;;;;;;;0.20;0.20;;;7.60;90.20;;;;;;5136237;28;20204;-77
2023/01/09 00:34:18;;;;;;;0.13;0.13;;;7.60;90.30;;;;;;5100888;28;20107;-77
2023/01/09 00:36:44;;;;;;;0.20;0.20;;;7.60;90.30;;;;;;5136614;28;20039;-77
2023/01/09 00:39:10;;;;;;;0.13;0.13;;;7.50;90.40;;;;;;5136218;28;20039;-77
2023/01/09 00:41:42;;;;;;;0.22;0.20;;;7.50;90.40;;;;;;5101155;28;20386;-77
2023/01/09 00:44:14;;;;;;;0.47;0.25;;;7.40;90.40;;;;;;5118537;28;20537;-77
2023/01/09 00:46:44;;;;;;;1.15;0.30;;;7.40;90.40;;;;;;5117554;28;20043;-76
2023/01/09 00:49:12;;;;;;;0.20;0.20;;;7.40;90.40;;;;;;5136030;28;20043;-76
2023/01/09 00:51:39;;;;;;;0.52;0.32;;;7.30;90.40;;;;;;5116450;28;20120;-77
2023/01/09 00:54:05;;;;;;;0.15;0.15;;;7.40;90.50;;;;;;5136128;28;20087;-77
2023/01/09 00:56:33;;;;;;;0.13;0.13;;;7.20;90.40;;;;;;5118042;28;20039;-77
2023/01/09 00:58:59;;;;;;;0.22;0.20;;;7.20;90.50;;;;;;5136036;28;20035;-77
2023/01/09 01:01:24;;;;;;;0.20;0.20;;;7.20;90.50;;;;;;5117318;28;20188;-77
2023/01/09 01:03:50;;;;;;;0.52;0.20;;;7.10;90.50;;;;;;5117062;28;20565;-76
2023/01/09 01:08:54;;;;;;;0.13;0.13;;;7.10;90.60;;;;;;5135364;28;20047;-77
2023/01/09 01:11:20;;;;;;;0.20;0.20;;;7.00;90.60;;;;;;5117239;28;20072;-77
2023/01/09 01:13:46;;;;;;;0.32;0.28;;;7.00;90.60;;;;;;5116941;28;20047;-77
2023/01/09 01:16:12;;;;;;;0.20;0.20;;;6.90;90.60;;;;;;5099672;28;20049;-77
2023/01/09 01:18:39;;;;;;;0.30;0.30;;;7.00;90.60;;;;;;5135155;28;20092;-77
2023/01/09 01:21:08;;;;;;;0.30;0.20;;;6.90;90.60;;;;;;5099843;28;20039;-77
2023/01/09 01:23:34;;;;;;;0.38;0.30;;;6.90;90.70;;;;;;5135189;28;20043;-77
2023/01/09 01:26:10;;;;;;;0.10;0.10;;;6.80;90.70;;;;;;5116497;28;20050;-77
2023/01/09 01:28:36;;;;;;;0.20;0.20;;;6.80;90.70;;;;;;5116540;28;20035;-77
2023/01/09 01:31:03;;;;;;;0.20;0.20;;;6.70;90.70;;;;;;5099722;28;20043;-77
2023/01/09 01:33:28;;;;;;;0.30;0.30;;;6.70;90.70;;;;;;5099514;28;20039;-77
2023/01/09 01:36:03;;;;;;;0.30;0.30;;;6.70;90.70;;;;;;5135119;28;20138;-77
2023/01/09 01:38:30;;;;;;;0.40;0.22;;;6.70;90.70;;;;;;5099713;28;20054;-77
2023/01/09 01:40:56;;;;;;;0.20;0.20;;;6.70;90.70;;;;;;5116547;28;20042;-77
2023/01/09 01:43:21;;;;;;;0.30;0.30;;;6.70;90.70;;;;;;5134749;28;20039;-77
2023/01/09 01:45:47;;;;;;;0.20;0.20;;;6.60;90.70;;;;;;5116289;28;20103;-77
2023/01/09 01:48:26;;;;;;;0.10;0.10;;;6.60;90.70;;;;;;5135038;28;20062;-77
2023/01/09 01:50:59;;;;;;;0.45;0.30;;;6.50;90.70;;;;;;5134801;28;20039;-77
2023/01/09 01:53:46;;;;;;;0.20;0.20;;;6.50;90.80;;;;;;5116092;28;20435;-77
2023/01/09 01:56:27;;;;;;;0.60;0.30;;;6.50;90.80;;;;;;5119376;28;20051;-77
2023/01/09 01:59:09;;;;;;;0.23;0.20;;;6.50;90.80;;;;;;5099221;28;20039;-77
2023/01/09 02:01:38;;;;;;;;;;;6.50;90.80;;;;;;5135061;28;20065;-77
2023/01/09 02:04:04;;;;;;;0.30;0.30;;;6.50;90.80;;;;;;5116606;28;20393;-77
2023/01/09 02:06:32;;;;;;;0.30;0.30;;;6.50;90.70;;;;;;5116700;28;20066;-77
2023/01/09 02:08:59;;;;;;;0.35;0.35;;;6.40;90.70;;;;;;5116037;28;20039;-77
2023/01/09 02:11:25;;;;;;;0.20;0.20;;;6.40;90.70;;;;;;5116219;28;20054;-77
2023/01/09 02:13:52;;;;;;;0.30;0.30;;;6.40;90.80;;;;;;5134319;28;20493;-77
2023/01/09 02:16:41;;;;;;;0.20;0.20;;;6.40;90.80;;;;;;5115803;28;20065;-77
2023/01/09 02:19:43;;;;;;;0.30;0.30;;;6.30;90.80;;;;;;5116001;28;20050;-76
2023/01/09 02:22:46;;;;;;;0.20;0.20;;;6.30;90.80;;;;;;5134910;28;20035;-77
2023/01/09 02:25:48;;;;;;;0.32;0.32;;;6.20;90.80;;;;;;5134281;28;20053;-77
2023/01/09 02:28:48;;;;;;;0.38;0.30;;;6.30;90.90;;;;;;5133813;28;20050;-77
2023/01/09 02:31:27;;;;;;;0.25;0.20;;;6.20;90.90;;;;;;5133919;28;20047;-77
2023/01/09 02:34:08;;;;;;;0.40;0.30;;;6.20;90.90;;;;;;5134135;28;20046;-77
2023/01/09 02:36:46;;;;;;;0.30;0.30;;;6.20;90.90;;;;;;5134043;28;20447;-77
2023/01/09 02:39:34;;;;;;;0.30;0.30;;;6.20;91.00;;;;;;5133610;28;20046;-77
2023/01/09 02:42:19;;;;;;;0.32;0.20;;;6.20;91.00;;;;;;5099310;28;20031;-77
2023/01/09 02:44:44;;;;;;;0.60;0.30;;;6.10;90.90;;;;;;5133651;28;20058;-77
2023/01/09 02:47:35;;;;;;;0.40;0.30;;;6.20;90.90;;;;;;5134261;28;20035;-77
2023/01/09 02:50:07;;;;;;;0.20;0.20;;;6.10;90.90;;;;;;5119682;28;20126;-77
2023/01/09 02:52:59;;;;;;;0.88;0.30;;;6.10;91.00;;;;;;5115480;28;20042;-77
2023/01/09 02:55:57;;;;;;;0.30;0.30;;;6.00;91.00;;;;;;5115633;28;20099;-77
2023/01/09 02:58:49;;;;;;;0.88;0.30;;;6.10;91.00;;;;;;5102727;28;20100;-77
2023/01/09 03:01:51;;;;;;;0.57;0.20;;;6.10;91.00;;;;;;5133585;28;20038;-77
2023/01/09 03:04:40;;;;;;;0.30;0.30;;;6.00;90.90;;;;;;5133443;28;20104;-77
2023/01/09 03:07:17;;;;;;;0.75;0.50;;;6.00;90.90;;;;;;5133698;28;20121;-77
2023/01/09 03:09:46;;;;;;;0.43;0.30;;;6.00;90.90;;;;;;5133566;28;20043;-77
2023/01/09 03:12:19;;;;;;;0.20;0.20;;;5.90;90.90;;;;;;5134085;28;20039;-77
2023/01/09 03:14:49;;;;;;;0.57;0.40;;;6.00;91.00;;;;;;5133441;27;20043;-77
2023/01/09 03:17:23;;;;;;;0.60;0.40;;;6.00;91.00;;;;;;5115928;28;20058;-77
2023/01/09 03:19:52;;;;;;;0.90;0.60;;;5.90;91.00;;;;;;5133714;28;20075;-77
2023/01/09 03:22:18;;;;;;;0.80;0.52;;;5.90;91.00;;;;;;5114865;28;20054;-77
2023/01/09 03:24:44;;;;;;;0.52;0.35;;;5.90;91.00;;;;;;5133676;28;20039;-77
2023/01/09 03:27:09;;;;;;;0.55;0.40;;;5.90;91.00;;;;;;5097946;28;20043;-77
2023/01/09 03:29:36;;;;;;;0.90;0.45;;;5.90;91.00;;;;;;5114997;28;20039;-77
2023/01/09 03:32:02;;;;;;;0.30;0.30;;;5.90;91.10;;;;;;5115328;28;20196;-77
2023/01/09 03:34:27;;;;;;;0.63;0.38;;;5.90;91.10;;;;;;5131174;28;20533;-77
2023/01/09 03:36:53;;;;;;;0.63;0.50;;;5.80;91.10;;;;;;5133695;28;20410;-77
2023/01/09 03:39:18;;;;;;;0.40;0.40;;;5.90;91.10;;;;;;5133049;28;20039;-77
2023/01/09 03:41:44;;;;;;;0.30;0.30;;;5.80;91.10;;;;;;5133600;28;20095;-77
2023/01/09 03:44:10;;;;;;;0.50;0.50;;;5.80;91.10;;;;;;5132943;28;20047;-77
2023/01/09 03:46:35;;;;;;;1.45;0.47;;;5.80;91.10;;;;;;5133466;28;20467;-77
2023/01/09 03:49:01;;;;;;;0.85;0.40;;;5.80;91.20;;;;;;5114529;28;20079;-77
2023/01/09 03:51:26;;;;;;;0.38;0.30;;;5.80;91.20;;;;;;5132703;28;20043;-77
2023/01/09 03:53:52;;;;;;;0.50;0.38;;;5.80;91.20;;;;;;5097348;28;20050;-76
2023/01/09 03:56:18;;;;;;;0.82;0.25;;;5.80;91.20;;;;;;5133262;28;20043;-77
2023/01/09 03:58:43;;;;;;;0.50;0.40;;;5.80;91.20;;;;;;5097147;28;20071;-77
2023/01/09 04:01:11;;;;;;;0.22;0.20;;;5.90;91.30;;;;;;5114386;28;20043;-76
2023/01/09 04:03:38;;;;;;;0.20;0.20;;;5.70;91.20;;;;;;5114202;28;20035;-77
2023/01/09 04:06:05;;;;;;;0.20;0.20;;;5.70;91.20;;;;;;5097433;28;20047;-76
2023/01/09 04:08:31;;;;;;;0.38;0.30;;;5.70;91.20;;;;;;5132685;28;20035;-77
2023/01/09 04:10:56;;;;;;;0.20;0.20;;;5.70;91.20;;;;;;5132593;28;20047;-77
2023/01/09 04:13:22;;;;;;;0.43;0.30;;;5.70;91.30;;;;;;5114501;28;20051;-76
2023/01/09 04:15:48;;;;;;;0.20;0.20;;;5.70;91.30;;;;;;5132473;28;20138;-77
2023/01/09 04:18:14;;;;;;;0.60;0.40;;;5.70;91.30;;;;;;5080305;28;20072;-77
2023/01/09 04:20:40;;;;;;;0.20;0.20;;;5.60;91.30;;;;;;5132444;28;20043;-77
2023/01/09 04:23:06;;;;;;;0.25;0.25;;;5.60;91.30;;;;;;5113819;28;20049;-76
2023/01/09 04:25:32;;;;;;;0.43;0.30;;;5.60;91.30;;;;;;5097141;28;20043;-77
2023/01/09 04:27:57;;;;;;;0.35;0.30;;;5.60;91.30;;;;;;5116206;28;20043;-76
2023/01/09 04:30:24;;;;;;;0.45;0.30;;;5.60;91.30;;;;;;5117536;28;20059;-77
2023/01/09 04:32:50;;;;;;;0.35;0.30;;;5.60;91.30;;;;;;5117544;28;20043;-77
2023/01/09 04:35:17;;;;;;;0.82;0.40;;;5.60;91.30;;;;;;5135796;28;20047;-77
2023/01/09 04:37:42;;;;;;;0.70;0.40;;;5.60;91.30;;;;;;5136126;28;20043;-77
2023/01/09 04:40:11;;;;;;;0.60;0.43;;;5.60;91.30;;;;;;5100374;28;20041;-77
2023/01/09 04:42:37;;;;;;;0.20;0.20;;;5.60;91.30;;;;;;5135605;28;20118;-77
2023/01/09 04:45:05;;;;;;;0.30;0.30;;;5.60;91.30;;;;;;5135994;28;20042;-77
2023/01/09 04:47:31;;;;;;;0.85;0.50;;;5.60;91.40;;;;;;5100683;28;20067;-77
2023/01/09 04:49:57;;;;;;;0.30;0.30;;;5.60;91.40;;;;;;5117354;28;20076;-77
2023/01/09 04:52:23;;;;;;;1.10;0.40;;;5.50;91.40;;;;;;5135653;28;20046;-77
2023/01/09 04:54:49;;;;;;;0.30;0.30;;;5.60;91.40;;;;;;5100144;28;20039;-77
2023/01/09 04:57:15;;;;;;;0.50;0.40;;;5.70;91.30;;;;;;5117920;28;20050;-77
2023/01/09 04:59:40;;;;;;;0.40;0.40;;;5.70;91.30;;;;;;5117793;28;20471;-77
2023/01/09 05:02:06;;;;;;;0.50;0.45;;;5.80;91.30;;;;;;5100456;28;20047;-76
2023/01/09 05:04:32;;;;;;;0.40;0.30;;;5.80;91.20;;;;;;5100138;28;20043;-77
2023/01/09 05:06:57;;;;;;;1.55;0.43;;;5.80;91.20;;;;;;5135660;28;20059;-76
2023/01/09 05:09:23;;;;;;;0.88;0.40;;;5.80;91.20;;;;;;5117246;28;20092;-77
2023/01/09 05:11:50;;;;;;;0.40;0.40;;;5.80;91.10;;;;;;5135587;28;20035;-76
2023/01/09 05:14:15;;;;;;;0.52;0.40;;;5.80;91.10;;;;;;5136120;28;20031;-76
2023/01/09 05:16:41;;;;;;;2.08;0.45;;;5.90;91.10;;;;;;5117137;28;20043;-77
2023/01/09 05:19:06;;;;;;;0.88;0.50;;;5.90;91.10;;;;;;5135218;28;20042;-76
2023/01/09 05:21:32;;;;;;;0.30;0.30;;;5.90;91.10;;;;;;5117026;28;20051;-77
2023/01/09 05:23:58;;;;;;;0.63;0.40;;;5.90;91.00;;;;;;5100044;28;20092;-76
2023/01/09 05:26:23;;;;;;;0.60;0.40;;;5.90;91.10;;;;;;5135285;28;20043;-77
2023/01/09 05:28:50;;;;;;;0.90;0.60;;;5.90;91.10;;;;;;5135760;28;20047;-76
2023/01/09 05:31:17;;;;;;;2.47;0.50;;;5.90;91.10;;;;;;5099949;28;20394;-77
2023/01/09 05:33:43;;;;;;;0.50;0.40;;;6.00;91.10;;;;;;5117514;28;20050;-76
2023/01/09 05:36:08;;;;;;;1.08;0.50;;;5.90;91.00;;;;;;5099627;28;20046;-76
2023/01/09 05:38:34;;;;;;;0.73;0.40;;;6.00;91.00;;;;;;5134904;27;20039;-77
2023/01/09 05:41:00;;;;;;;0.70;0.45;;;6.00;91.00;;;;;;5116858;28;20043;-76
2023/01/09 05:43:25;;;;;;;0.73;0.40;;;6.00;91.00;;;;;;5116601;28;20039;-77
2023/01/09 05:45:51;;;;;;;2.15;0.68;;;6.00;91.00;;;;;;5116377;28;20448;-77
2023/01/09 05:48:16;;;;;;;0.43;0.30;;;5.90;91.00;;;;;;5116322;28;20043;-76
2023/01/09 05:50:42;;;;;;;0.52;0.40;;;6.00;91.00;;;;;;5116337;28;20091;-76
2023/01/09 05:53:08;;;;;;;0.82;0.40;;;6.00;91.00;;;;;;5134713;28;20031;-76
2023/01/09 05:55:33;;;;;;;0.55;0.32;;;6.00;91.00;;;;;;5116425;28;20130;-76
2023/01/09 05:57:59;;;;;;;0.45;0.40;;;6.00;91.10;;;;;;5134967;28;20137;-76
2023/01/09 06:00:25;;;;;;;0.63;0.50;;;6.00;91.10;;;;;;5116268;28;20050;-76
2023/01/09 06:02:50;;;;;;;1.02;0.50;;;6.00;91.10;;;;;;5099347;28;20039;-77
2023/01/09 06:05:16;;;;;;;1.00;0.40;;;5.90;91.10;;;;;;5099209;28;20099;-77
2023/01/09 06:07:42;;;;;;;0.52;0.30;;;6.00;91.20;;;;;;5134592;28;20172;-77
2023/01/09 06:10:11;;;;;;;1.38;0.47;;;6.00;91.20;;;;;;5116743;28;20180;-77
2023/01/09 06:12:36;;;;;;;0.70;0.45;;;6.00;91.20;;;;;;5082433;28;20046;-77
2023/01/09 06:15:02;;;;;;;1.05;0.40;;;6.10;91.10;;;;;;5116171;28;20047;-77
2023/01/09 06:17:28;;;;;;;0.80;0.50;;;6.10;91.00;;;;;;5116940;28;20031;-76
2023/01/09 06:19:54;;;;;;;0.77;0.30;;;6.10;91.00;;;;;;5117168;28;20046;-76
2023/01/09 06:22:20;;;;;;;0.80;0.40;;;6.20;91.00;;;;;;5117535;28;20100;-76
2023/01/09 06:24:45;;;;;;;0.40;0.40;;;6.20;91.00;;;;;;5135543;28;20490;-77
2023/01/09 06:27:11;;;;;;;0.90;0.52;;;6.30;91.00;;;;;;5117772;28;20051;-77
2023/01/09 06:29:38;;;;;;;1.45;0.47;;;6.20;91.00;;;;;;5136413;28;20126;-76
2023/01/09 06:32:03;;;;;;;0.40;0.40;;;6.30;90.90;;;;;;5136302;28;20039;-76
2023/01/09 06:34:29;;;;;;;0.70;0.40;;;6.30;90.90;;;;;;5100481;28;20039;-77
2023/01/09 06:36:55;;;;;;;0.73;0.47;;;6.40;90.90;;;;;;5116809;28;20051;-77
2023/01/09 06:39:20;;;;;;;0.80;0.50;;;6.50;90.90;;;;;;5118353;28;20040;-77
2023/01/09 06:41:46;;;;;;;0.52;0.47;;;6.50;90.90;;;;;;5136352;28;20035;-76
2023/01/09 06:44:12;;;;;;;0.75;0.40;;;6.50;90.80;;;;;;5117898;28;20039;-76
2023/01/09 06:46:38;;;;;;;1.67;0.30;;;6.60;90.80;;;;;;5116614;28;20047;-77
2023/01/09 06:49:03;;;;;;;0.63;0.43;;;6.60;90.80;;;;;;5117243;27;20047;-76
2023/01/09 06:51:29;;;;;;;0.93;0.47;;;6.60;90.70;;;;;;5135531;28;20117;-76
2023/01/09 06:53:54;;;;;;;0.50;0.50;;;6.60;90.80;;;;;;5117801;28;20039;-76
2023/01/09 06:56:20;;;;;;;0.77;0.45;;;6.60;90.80;;;;;;5100167;28;20103;-76
2023/01/09 06:58:46;;;;;;;1.02;0.40;;;6.70;90.80;;;;;;5100652;28;20039;-76
2023/01/09 07:01:11;;;;;;;0.95;0.40;;;6.70;90.80;;;;;;5117358;28;20039;-76
2023/01/09 07:03:37;;;;;;;1.10;0.40;;;6.70;90.70;;;;;;5100079;28;20054;-77
2023/01/09 07:06:03;;;;;;;0.93;0.40;;;6.80;90.70;;;;;;5135743;28;20126;-77
2023/01/09 07:08:29;;;;;;;1.00;0.40;;;6.80;90.70;;;;;;5117064;28;20479;-76
2023/01/09 07:10:54;;;;;;;0.40;0.30;;;6.80;90.70;;;;;;5116137;28;20039;-76
2023/01/09 07:13:20;;;;;;;1.67;0.50;;;6.80;90.70;;;;;;5116280;28;20511;-77
2023/01/09 07:15:46;;;;;;;1.10;0.80;;;6.80;90.70;;;;;;5099378;28;20128;-76
2023/01/09 07:18:11;;;;;;;2.88;0.57;;;6.90;90.70;;;;;;5134551;28;20103;-75
2023/01/09 07:20:40;;;;;;;2.10;0.47;;;6.90;90.70;;;;;;5133647;28;20402;-76
2023/01/09 07:23:06;;;;;;;0.22;0.22;;;6.90;90.70;;;;;;5115528;28;20482;-77
2023/01/09 07:25:32;;;;;;;3.90;0.52;;;6.90;90.70;;;;;;5133988;28;20451;-76
2023/01/09 07:27:57;;;;;;;0.75;0.50;;;6.90;90.70;;;;;;5115385;28;20070;-77
2023/01/09 07:30:23;;;;;;;2.15;0.70;;;6.90;90.70;;;;;;5133563;28;20448;-77
2023/01/09 07:32:49;;;;;;;0.98;0.40;;;6.90;90.70;;;;;;5098093;28;20398;-77
2023/01/09 07:35:14;;;;;;;1.05;0.55;;;6.90;90.80;;;;;;5098089;28;20051;-77
2023/01/09 07:37:40;;;;;;;1.20;0.40;;;6.90;90.80;;;;;;5133306;28;20126;-77
2023/01/09 07:40:06;;;;;;;0.95;0.30;;;6.90;90.80;;;;;;5115313;28;20047;-77
2023/01/09 07:42:32;;;;;;;0.85;0.50;;;6.80;90.80;;;;;;5069887;28;20549;-78
2023/01/09 07:44:58;;;;;;;1.33;0.50;;;6.80;90.80;;;;;;5038285;28;20040;-79
2023/01/09 07:47:23;;;;;;;0.60;0.40;;;6.80;90.90;;;;;;5055468;28;20040;-79
2023/01/09 07:49:55;;;;;;;1.23;0.80;;;6.90;90.90;;;;;;5036825;28;20187;-79
2023/01/09 07:52:26;;;;;;;;;;;6.80;90.90;;;;;;5032971;28;20044;-80
2023/01/09 07:54:53;;;;;;;0.60;0.50;;;6.80;90.90;;;;;;5032953;28;19916;-78
2023/01/09 07:57:25;;;;;;;0.40;0.40;;;6.80;90.90;;;;;;5016245;28;20090;-78
2023/01/09 07:59:56;;;;;;;1.05;0.55;;;6.90;90.90;;;;;;5033574;28;20040;-78
2023/01/09 08:02:21;;;;;;;2.22;0.50;;;6.90;90.90;;;;;;5019133;28;20060;-78
2023/01/09 08:04:47;;;;;;;1.67;0.80;;;6.90;90.90;;;;;;5053089;28;20503;-78
2023/01/09 08:07:15;;;;;;;1.77;0.80;;;6.90;91.00;;;;;;5023592;28;20028;-77
2023/01/09 08:09:44;;;;;;;1.52;0.60;;;6.90;91.00;;;;;;5034493;28;20230;-78
2023/01/09 08:12:09;;;;;;;1.45;0.55;;;6.90;91.00;;;;;;5051277;28;20057;-78
2023/01/09 08:14:35;;;;;;;1.67;0.52;;;6.90;91.00;;;;;;5098975;28;20149;-78
2023/01/09 08:17:01;;;;;;;2.08;0.70;;;6.90;91.00;;;;;;5082798;28;20040;-79
2023/01/09 08:19:27;;;;;;;2.75;1.00;;;6.90;91.00;;;;;;5067796;28;20078;-78
2023/01/09 08:21:53;;;;;;;1.92;0.90;;;6.90;91.00;;;;;;5059791;28;20099;-78
2023/01/09 08:24:22;;;;;;;2.03;1.00;;;6.90;91.00;;;;;;5075247;28;20055;-77
2023/01/09 08:26:47;;;;;;;2.38;0.98;;;7.00;91.00;;;;;;5038795;28;20049;-78
2023/01/09 08:29:13;;;;;;;1.67;1.00;;;7.00;91.00;;;;;;5039440;28;20037;-78
2023/01/09 08:31:41;;;;;;;0.90;0.60;;;6.80;91.00;;;;;;5056491;28;20036;-79
2023/01/09 08:34:10;;;;;;;1.85;1.02;;;6.90;91.10;;;;;;5038441;28;20127;-78
2023/01/09 08:36:36;;;;;;;1.13;0.75;;;6.90;91.10;;;;;;5037704;28;20041;-78
2023/01/09 08:39:11;;;;;;;0.88;0.70;;;6.90;91.10;;;;;;5055718;28;20078;-78
2023/01/09 08:47:06;;;;;;;2.05;1.10;;;6.90;91.20;;;;;;5052872;28;20055;-78
2023/01/09 08:49:34;;;;;;;1.45;1.02;;;6.80;91.20;;;;;;5036464;28;20040;-77
2023/01/09 08:52:00;;;;;;;1.35;1.00;;;6.90;91.30;;;;;;5036395;28;20151;-79
2023/01/09 08:54:26;;;;;;;2.20;1.10;;;6.90;91.20;;;;;;5004190;28;20097;-76
2023/01/09 08:56:51;;;;;;;1.60;1.00;;;6.90;91.30;;;;;;5036271;28;20036;-76
2023/01/09 08:59:17;;;;;;;2.33;1.20;;;6.90;91.20;;;;;;5036142;28;20143;-77
2023/01/09 09:01:43;;;;;;;2.30;1.27;;;6.90;91.30;;;;;;5036129;28;20041;-77
2023/01/09 09:04:08;;;;;;;2.15;1.02;;;7.00;91.30;;;;;;5039947;28;20079;-77
2023/01/09 09:06:35;;;;;;;2.05;1.05;;;7.00;91.20;;;;;;5106745;28;20060;-79
2023/01/09 09:09:02;;;;;;;1.70;1.15;;;7.10;91.20;;;;;;5072505;28;20040;-78
2023/01/09 09:11:29;;;;;;;1.17;0.93;;;7.10;91.20;;;;;;5073095;28;20040;-77
2023/01/09 09:13:55;;;;;;;1.30;1.00;;;7.10;91.20;;;;;;5069106;28;20376;-78
2023/01/09 09:16:21;;;;;;;1.77;1.00;;;7.10;91.20;;;;;;5041747;28;20048;-79
2023/01/09 09:18:46;;;;;;;2.05;1.10;;;7.10;91.20;;;;;;5058064;28;20051;-78
2023/01/09 09:21:12;;;;;;;2.17;1.00;;;7.10;91.40;;;;;;5039073;28;20135;-79
2023/01/09 09:23:38;;;;;;;2.13;1.33;;;7.20;91.20;;;;;;5056431;28;20044;-78
2023/01/09 09:26:04;;;;;;;2.13;1.30;;;7.20;91.20;;;;;;5039281;28;20063;-78
2023/01/09 09:28:30;;;;;;;2.38;1.40;;;7.30;91.30;;;;;;5038766;28;20117;-78
2023/01/09 09:30:55;;;;;;;2.50;1.40;;;7.20;91.20;;;;;;5037922;28;20511;-78
2023/01/09 09:33:41;;;;;;;2.78;1.40;;;7.30;91.30;;;;;;5055707;28;20515;-79
2023/01/09 09:36:07;;;;;;;2.05;1.40;;;7.30;91.30;;;;;;5056780;28;20040;-78
2023/01/09 09:38:32;;;;;;;2.03;1.23;;;7.50;91.30;;;;;;5062135;28;20094;-78
2023/01/09 09:47:26;;;;;;;2.10;1.40;;;7.30;91.20;;;;;;5119664;28;20039;-81
2023/01/09 09:50:15;;;;;;;3.30;1.17;;;7.30;91.30;;;;;;5136081;28;20040;-79
2023/01/09 09:52:58;;;;;;;0.90;0.85;;;7.30;91.30;;;;;;5100005;28;20027;-79
2023/01/09 09:55:29;;;;;;;2.67;1.10;;;7.30;91.30;;;;;;5134951;28;20055;-77
2023/01/09 09:57:59;;;;;;;3.28;1.20;;;7.40;91.30;;;;;;5099212;28;20107;-77
2023/01/09 10:00:25;;;;;;;1.23;1.02;;;7.30;91.30;;;;;;5100105;28;20054;-77
2023/01/09 10:03:06;;;;;;;3.15;1.20;;;7.30;91.40;;;;;;5117709;28;20483;-79
2023/01/09 10:05:39;;;;;;;2.33;0.90;;;7.40;91.40;;;;;;5099574;28;20058;-78
2023/01/09 10:08:20;;;;;;;1.23;0.95;;;7.40;91.30;;;;;;5099845;28;20119;-79
2023/01/09 10:10:52;;;;;;;1.73;1.00;;;7.40;91.30;;;;;;5098695;28;20054;-78
2023/01/09 10:16:28;;;;;;;1.52;0.90;;;7.40;91.30;;;;;;5119312;28;20050;-78
2023/01/09 10:19:09;;;;;;;2.15;0.93;;;7.50;91.30;;;;;;5116290;28;20076;-77
2023/01/09 10:21:51;;;;;;;1.63;1.10;;;7.50;91.30;;;;;;5118109;28;20114;-77
2023/01/09 10:24:56;;;;;;;1.50;1.17;;;7.60;91.30;;;;;;5082568;28;20430;-79
2023/01/09 10:28:00;;;;;;;1.73;1.10;;;7.60;91.30;;;;;;5117065;28;20092;-78
2023/01/09 10:30:42;;;;;;;2.08;1.10;;;7.70;91.20;;;;;;5117192;28;20058;-79
2023/01/09 10:33:42;;;;;;;2.25;1.50;;;7.70;91.20;;;;;;5100256;28;20041;-80
2023/01/09 10:36:37;;;;;;;3.38;1.30;;;7.70;91.20;;;;;;5119245;28;20047;-80
2023/01/09 10:39:18;;;;;;;2.53;1.40;;;7.60;91.20;;;;;;5139946;28;20129;-80
2023/01/09 10:45:40;;;;;;;2.28;1.40;;;7.60;91.30;;;;;;5052083;28;20076;-80
2023/01/09 10:48:28;;;;;;;1.85;1.17;;;7.60;91.30;;;;;;5023106;28;20068;-79
2023/01/09 10:50:59;;;;;;;2.28;1.20;;;7.60;91.30;;;;;;5021255;28;20497;-79
2023/01/09 10:53:31;;;;;;;2.03;1.20;;;7.60;91.30;;;;;;4982739;28;20477;-78
2023/01/09 10:56:06;;;;;;;1.20;1.10;;;7.60;91.40;;;;;;4995277;28;20054;-78
2023/01/09 10:58:31;;;;;;;1.67;1.10;;;7.50;91.40;;;;;;5011011;28;20049;-77
2023/01/09 11:01:00;;;;;;;1.55;0.90;;;7.50;91.40;;;;;;5010909;28;20419;-77
2023/01/09 11:03:27;;;;;;;1.30;0.90;;;7.50;91.50;;;;;;4995097;28;20125;-78
2023/01/09 11:05:57;;;;;;;0.80;0.80;;;7.60;91.60;;;;;;5008093;28;20420;-77
2023/01/09 11:08:29;;;;;;;2.28;1.10;;;7.60;91.60;;;;;;5034681;28;20040;-77
2023/01/09 11:10:58;;;;;;;2.10;1.00;;;7.70;91.60;;;;;;5034935;28;20513;-78
2023/01/09 11:13:28;;;;;;;1.85;1.20;;;7.90;91.50;;;;;;5071216;28;20032;-78
2023/01/09 11:16:06;;;;;;;3.15;1.33;;;7.80;91.40;;;;;;5074998;28;20039;-78
2023/01/09 11:18:33;;;;;;;2.08;1.17;;;7.70;91.40;;;;;;5090827;28;20051;-78
2023/01/09 11:21:26;;;;;;;2.08;1.00;;;7.70;91.40;;;;;;5119907;28;20058;-77
2023/01/09 11:23:53;;;;;;;2.08;1.23;;;7.70;91.50;;;;;;5135724;28;20054;-78
2023/01/09 11:26:26;;;;;;;1.63;0.98;;;7.60;91.50;;;;;;5117017;28;20050;-76
2023/01/09 11:29:10;;;;;;;2.10;1.00;;;7.70;91.50;;;;;;5101880;28;20039;-77
2023/01/09 11:31:36;;;;;;;1.15;1.05;;;7.80;91.50;;;;;;5124276;28;20045;-77
2023/01/09 11:34:02;;;;;;;1.20;1.00;;;7.80;91.50;;;;;;5144925;28;20046;-77
2023/01/09 11:36:36;;;;;;;1.98;1.10;;;7.80;91.40;;;;;;5135429;28;20039;-77
2023/01/09 11:39:17;;;;;;;1.15;0.90;;;7.80;91.40;;;;;;5131874;28;20107;-76
2023/01/09 11:41:43;;;;;;;1.00;0.93;;;7.80;91.40;;;;;;5143977;28;20039;-76
2023/01/09 11:44:14;;;;;;;1.70;1.05;;;7.90;91.40;;;;;;5106623;28;20516;-76
2023/01/09 11:46:42;;;;;;;1.38;0.85;;;7.90;91.30;;;;;;5144239;28;20047;-76
2023/01/09 11:49:26;;;;;;;1.10;1.00;;;7.90;91.30;;;;;;5108823;28;20036;-76
2023/01/09 11:52:16;;;;;;;1.23;1.10;;;8.00;91.30;;;;;;5124298;28;20042;-76
2023/01/09 11:54:59;;;;;;;1.23;0.95;;;7.90;91.30;;;;;;5118017;28;20088;-77
2023/01/09 11:57:26;;;;;;;1.98;0.85;;;8.00;91.30;;;;;;5117922;28;20035;-77
2023/01/09 11:59:56;;;;;;;1.17;0.80;;;8.00;91.40;;;;;;5119165;28;20046;-78
2023/01/09 12:02:58;;;;;;;2.00;0.90;;;8.00;91.40;;;;;;5118879;28;20043;-77
2023/01/09 12:05:48;;;;;;;0.50;0.50;;;8.10;91.40;;;;;;5106234;28;20482;-77
2023/01/09 12:08:26;;;;;;;2.00;0.85;;;8.30;91.30;;;;;;5132770;28;20042;-77
2023/01/09 12:11:18;;;;;;;1.70;0.90;;;8.50;91.20;;;;;;5133470;28;20042;-77
2023/01/09 12:14:09;;;;;;;2.55;0.90;;;8.60;91.10;;;;;;5114551;28;20047;-77
2023/01/09 12:16:49;;;;;;;2.30;0.93;;;8.70;91.00;;;;;;5101316;28;20104;-77
2023/01/09 12:19:40;;;;;;;1.48;0.90;;;8.80;90.90;;;;;;5132783;28;20038;-77
2023/01/09 12:22:37;;;;;;;2.35;1.10;;;8.80;90.80;;;;;;5114469;28;20073;-78
2023/01/09 12:25:17;;;;;;;2.92;1.20;;;8.90;90.70;;;;;;5114249;28;20486;-77
2023/01/09 12:27:59;;;;;;;2.70;1.10;;;8.70;90.70;;;;;;5132429;28;20084;-77
2023/01/09 12:30:47;;;;;;;2.00;1.02;;;8.80;90.80;;;;;;5099775;28;20126;-80
2023/01/09 12:33:40;;;;;;;2.25;0.93;;;8.70;90.80;;;;;;5116763;28;20088;-79
2023/01/09 12:36:28;;;;;;;2.33;0.90;;;8.70;90.80;;;;;;5117259;28;20158;-77
2023/01/09 12:39:10;;;;;;;1.40;0.75;;;8.70;90.90;;;;;;5114610;28;20035;-77
2023/01/09 12:42:04;;;;;;;1.00;0.75;;;8.60;90.90;;;;;;5132936;28;20047;-76
2023/01/09 12:44:50;;;;;;;1.13;0.75;;;8.60;91.00;;;;;;5132654;28;20117;-79
2023/01/09 12:48:11;;;;;;;3.55;1.10;;;8.70;91.00;;;;;;5073494;28;20055;-80
2023/01/09 12:51:13;;;;;;;1.58;0.90;;;8.70;91.00;;;;;;5065316;28;20032;-78
2023/01/09 12:54:01;;;;;;;1.27;0.70;;;8.80;90.90;;;;;;5075462;28;20045;-78
2023/01/09 12:56:35;;;;;;;2.03;0.88;;;8.90;90.90;;;;;;5067320;28;20068;-78
2023/01/09 12:59:19;;;;;;;1.50;0.93;;;8.90;90.90;;;;;;5049025;28;20075;-78
2023/01/09 13:01:49;;;;;;;2.25;0.85;;;9.00;90.90;;;;;;5053217;28;20040;-78
2023/01/09 13:04:24;;;;;;;2.25;0.80;;;8.90;90.90;;;;;;5026752;28;20488;-78
2023/01/09 13:06:56;;;;;;;2.67;0.73;;;8.90;91.00;;;;;;5008624;28;20121;-78
2023/01/09 13:09:42;;;;;;;1.90;0.80;;;8.80;91.00;;;;;;5039884;28;20048;-77
2023/01/09 13:12:26;;;;;;;0.80;0.80;;;8.70;91.00;;;;;;5030631;28;20049;-78
2023/01/09 13:15:00;;;;;;;1.92;0.80;;;8.70;91.00;;;;;;5004103;28;20113;-77
2023/01/09 13:17:36;;;;;;;2.75;0.90;;;8.80;91.10;;;;;;4983552;28;20132;-77
2023/01/09 13:20:16;;;;;;;1.38;0.70;;;8.70;91.10;;;;;;4968441;28;20632;-77
2023/01/09 13:22:48;;;;;;;1.45;0.65;;;8.80;91.10;;;;;;5032790;28;20103;-77
2023/01/09 13:25:43;;;;;;;1.20;0.80;;;8.80;91.00;;;;;;5032177;28;20124;-78
2023/01/09 13:28:21;;;;;;;1.48;0.90;;;8.70;91.00;;;;;;5032215;28;20053;-76
2023/01/09 13:31:10;;;;;;;2.55;0.75;;;8.70;91.00;;;;;;5015566;28;20121;-76
2023/01/09 13:33:40;;;;;;;1.17;0.70;;;8.70;91.10;;;;;;5083628;28;20060;-77
2023/01/09 13:36:06;;;;;;;1.33;0.60;;;8.60;91.10;;;;;;5091901;28;20039;-77
2023/01/09 13:38:34;;;;;;;1.48;0.85;;;8.50;91.10;;;;;;5058249;28;20449;-77
2023/01/09 13:44:02;;;;;;;0.90;0.70;;;8.40;91.20;;;;;;5091653;28;20052;-77